createdAt,value
2018-12-11T00:03:24.518Z,0
2018-12-11T00:06:52.354Z,0
2018-12-11T00:10:20.202Z,0
2018-12-11T00:13:48.056Z,0
2018-12-11T00:17:15.907Z,0
2018-12-11T00:20:43.770Z,0
2018-12-11T00:24:11.722Z,0
2018-12-11T00:27:39.553Z,0
2018-12-11T00:31:07.407Z,0
2018-12-11T00:34:35.259Z,0
2018-12-11T00:38:03.101Z,0
2018-12-11T00:41:30.945Z,0
2018-12-11T00:44:58.813Z,0
2018-12-11T00:48:26.754Z,0
2018-12-11T00:51:54.620Z,0
2018-12-11T00:55:22.498Z,0
2018-12-11T00:58:51.368Z,0
2018-12-11T01:02:20.215Z,0
2018-12-11T01:05:48.087Z,0
2018-12-11T01:09:15.963Z,0
2018-12-11T01:12:43.837Z,0
2018-12-11T01:16:11.698Z,0
2018-12-11T01:19:39.572Z,0
2018-12-11T01:23:07.440Z,0
2018-12-11T01:26:35.295Z,0
2018-12-11T01:30:03.170Z,0
2018-12-11T01:33:31.044Z,0
2018-12-11T01:36:58.917Z,0
2018-12-11T01:40:26.770Z,0
2018-12-11T01:43:55.646Z,0
2018-12-11T01:47:23.518Z,0
2018-12-11T01:50:51.382Z,0
2018-12-11T01:54:19.262Z,0
2018-12-11T01:57:47.141Z,0
2018-12-11T02:01:15.002Z,0
2018-12-11T02:04:42.882Z,0
2018-12-11T02:08:10.746Z,0
2018-12-11T02:11:38.815Z,0
2018-12-11T02:15:06.673Z,0
2018-12-11T02:18:34.548Z,0
2018-12-11T02:22:02.426Z,0
2018-12-11T02:25:30.279Z,0
2018-12-11T02:28:58.152Z,0
2018-12-11T02:32:26.025Z,0
2018-12-11T02:35:53.883Z,0
2018-12-11T02:39:21.763Z,0
2018-12-11T02:42:49.637Z,0
2018-12-11T02:46:17.506Z,0
2018-12-11T02:49:45.370Z,0
2018-12-11T02:53:13.242Z,0
2018-12-11T02:56:41.115Z,0
2018-12-11T03:00:08.975Z,0
2018-12-11T03:03:36.901Z,0
2018-12-11T03:07:04.781Z,0
2018-12-11T03:10:32.637Z,0
2018-12-11T03:14:00.514Z,0
2018-12-11T03:17:29.409Z,0
2018-12-11T03:20:57.234Z,0
2018-12-11T03:24:28.790Z,0
2018-12-11T03:27:56.665Z,0
2018-12-11T03:31:24.523Z,0
2018-12-11T03:34:52.418Z,0
2018-12-11T03:38:20.291Z,0
2018-12-11T03:41:49.157Z,0
2018-12-11T03:45:17.019Z,0
2018-12-11T03:48:45.206Z,0
2018-12-11T03:52:13.083Z,0
2018-12-11T03:55:43.910Z,0
2018-12-11T03:59:11.784Z,0
2018-12-11T04:02:39.658Z,0
2018-12-11T04:06:07.511Z,0
2018-12-11T04:09:35.425Z,0
2018-12-11T04:13:03.288Z,0
2018-12-11T04:16:31.142Z,0
2018-12-11T04:19:59.052Z,0
2018-12-11T04:23:26.922Z,0
2018-12-11T04:26:54.795Z,0
2018-12-11T04:30:22.656Z,0
2018-12-11T04:33:50.531Z,0
2018-12-11T04:37:18.410Z,0
2018-12-11T04:40:46.268Z,0
2018-12-11T04:44:14.149Z,0
2018-12-11T04:47:42.037Z,0
2018-12-11T04:51:09.886Z,0
2018-12-11T04:54:37.768Z,0
2018-12-11T04:58:05.663Z,0
2018-12-11T05:01:33.557Z,0
2018-12-11T05:05:01.427Z,0
2018-12-11T05:08:29.303Z,0
2018-12-11T05:11:57.179Z,0
2018-12-11T05:15:25.040Z,0
2018-12-11T05:18:52.915Z,0
2018-12-11T05:22:20.786Z,0
2018-12-11T05:25:48.670Z,0
2018-12-11T05:29:16.519Z,0
2018-12-11T05:32:44.390Z,0
2018-12-11T05:36:12.248Z,0
2018-12-11T05:39:40.122Z,0
2018-12-11T05:43:07.995Z,0
2018-12-11T05:46:35.854Z,0
2018-12-11T05:50:03.730Z,0
2018-12-11T05:53:31.611Z,0
2018-12-11T05:56:59.492Z,0
2018-12-11T06:00:27.363Z,0
2018-12-11T06:03:55.234Z,0
2018-12-11T06:07:23.114Z,0
2018-12-11T06:10:50.971Z,0
2018-12-11T06:14:18.845Z,0
2018-12-11T06:17:46.723Z,0
2018-12-11T06:21:14.604Z,0
2018-12-11T06:24:42.464Z,0
2018-12-11T06:28:10.347Z,0
2018-12-11T06:31:38.210Z,0
2018-12-11T06:35:07.067Z,0
2018-12-11T06:38:34.935Z,0
2018-12-11T06:42:02.813Z,0
2018-12-11T06:45:30.660Z,0
2018-12-11T06:48:58.534Z,0
2018-12-11T06:52:26.406Z,0
2018-12-11T06:55:55.255Z,0
2018-12-11T06:59:23.135Z,0
2018-12-11T07:02:51.012Z,0
2018-12-11T07:06:18.883Z,0
2018-12-11T07:09:46.737Z,0
2018-12-11T07:13:15.605Z,0
2018-12-11T07:16:43.547Z,0
2018-12-11T07:20:11.338Z,5.625
2018-12-11T07:23:39.210Z,5.625
2018-12-11T07:27:07.086Z,11.25
2018-12-11T07:30:34.968Z,11.25
2018-12-11T07:34:02.831Z,5.625
2018-12-11T07:37:30.707Z,5.625
2018-12-11T07:40:58.596Z,5.625
2018-12-11T07:44:26.466Z,5.625
2018-12-11T07:47:54.333Z,5.625
2018-12-11T07:51:22.212Z,5.625
2018-12-11T07:54:50.073Z,5.625
2018-12-11T07:58:17.937Z,5.625
2018-12-11T08:01:45.819Z,11.25
2018-12-11T08:05:13.678Z,11.25
2018-12-11T08:08:41.558Z,11.25
2018-12-11T08:12:11.414Z,16.875
2018-12-11T08:15:39.407Z,11.25
2018-12-11T08:19:07.270Z,11.25
2018-12-11T08:22:36.146Z,11.25
2018-12-11T08:26:04.023Z,11.25
2018-12-11T08:29:31.881Z,16.875
2018-12-11T08:32:59.756Z,22.5
2018-12-11T08:36:27.634Z,22.5
2018-12-11T08:39:55.503Z,39.375
2018-12-11T08:43:23.386Z,28.125
2018-12-11T08:46:51.266Z,22.5
2018-12-11T08:50:19.119Z,22.5
2018-12-11T08:53:46.994Z,22.5
2018-12-11T08:57:14.862Z,16.875
2018-12-11T09:00:42.725Z,28.125
2018-12-11T09:04:10.608Z,28.125
2018-12-11T09:07:38.491Z,33.75
2018-12-11T09:11:06.345Z,16.875
2018-12-11T09:14:34.230Z,28.125
2018-12-11T09:18:02.106Z,28.125
2018-12-11T09:21:29.970Z,28.125
2018-12-11T09:24:57.849Z,33.75
2018-12-11T09:28:25.721Z,39.375
2018-12-11T09:31:53.584Z,56.25
2018-12-11T09:35:21.474Z,61.875
2018-12-11T09:38:49.334Z,56.25
2018-12-11T09:42:17.212Z,56.25
2018-12-11T09:45:46.064Z,67.5
2018-12-11T09:49:13.935Z,73.125
2018-12-11T09:52:41.813Z,73.125
2018-12-11T09:56:09.671Z,78.75
2018-12-11T09:59:37.543Z,67.5
2018-12-11T10:03:05.422Z,56.25
2018-12-11T10:06:33.281Z,50.625
2018-12-11T10:10:01.164Z,45
2018-12-11T10:13:29.040Z,61.875
2018-12-11T10:16:56.898Z,61.875
2018-12-11T10:20:24.778Z,56.25
2018-12-11T10:23:53.643Z,45
2018-12-11T10:27:21.520Z,56.25
2018-12-11T10:30:49.392Z,67.5
2018-12-11T10:34:17.267Z,56.25
2018-12-11T10:37:45.150Z,50.625
2018-12-11T10:41:13.012Z,73.125
2018-12-11T10:44:40.888Z,95.625
2018-12-11T10:48:08.770Z,146.25
2018-12-11T10:51:36.625Z,101.25
2018-12-11T10:55:05.484Z,73.125
2018-12-11T10:58:33.358Z,45
2018-12-11T11:02:01.226Z,56.25
2018-12-11T11:05:29.103Z,56.25
2018-12-11T11:08:56.983Z,56.25
2018-12-11T11:12:24.844Z,78.75
2018-12-11T11:15:52.729Z,95.625
2018-12-11T11:19:20.600Z,73.125
2018-12-11T11:22:49.467Z,78.75
2018-12-11T11:26:18.327Z,67.5
2018-12-11T11:29:46.201Z,73.125
2018-12-11T11:33:14.081Z,45
2018-12-11T11:36:41.937Z,50.625
2018-12-11T11:40:09.819Z,56.25
2018-12-11T11:43:38.694Z,50.625
2018-12-11T11:47:06.560Z,67.5
2018-12-11T11:50:35.424Z,84.375
2018-12-11T11:54:03.299Z,67.5
2018-12-11T11:57:33.244Z,73.125
2018-12-11T12:01:01.102Z,56.25
2018-12-11T12:04:28.982Z,39.375
2018-12-11T12:07:57.854Z,33.75
2018-12-11T12:11:25.714Z,39.375
2018-12-11T12:14:53.606Z,39.375
2018-12-11T12:18:21.502Z,28.125
2018-12-11T12:21:49.362Z,28.125
2018-12-11T12:25:17.234Z,22.5
2018-12-11T12:28:45.106Z,28.125
2018-12-11T12:32:12.957Z,39.375
2018-12-11T12:35:40.839Z,33.75
2018-12-11T12:39:08.723Z,33.75
2018-12-11T12:42:36.599Z,33.75
2018-12-11T12:46:04.456Z,33.75
2018-12-11T12:49:32.326Z,33.75
2018-12-11T12:53:00.201Z,33.75
2018-12-11T12:56:28.056Z,22.5
2018-12-11T12:59:55.926Z,22.5
2018-12-11T13:03:23.802Z,22.5
2018-12-11T13:06:51.661Z,22.5
2018-12-11T13:10:19.533Z,16.875
2018-12-11T13:13:47.407Z,16.875
2018-12-11T13:17:15.273Z,16.875
2018-12-11T13:20:43.152Z,22.5
2018-12-11T13:24:11.023Z,16.875
2018-12-11T13:27:38.889Z,22.5
2018-12-11T13:31:06.759Z,39.375
2018-12-11T13:34:34.632Z,33.75
2018-12-11T13:38:02.491Z,28.125
2018-12-11T13:41:31.471Z,39.375
2018-12-11T13:44:59.353Z,50.625
2018-12-11T13:48:27.235Z,45
2018-12-11T13:51:55.093Z,28.125
2018-12-11T13:55:22.978Z,16.875
2018-12-11T13:58:50.852Z,22.5
2018-12-11T14:02:18.712Z,16.875
2018-12-11T14:05:46.588Z,11.25
2018-12-11T14:09:14.469Z,11.25
2018-12-11T14:12:42.330Z,5.625
2018-12-11T14:16:10.203Z,5.625
2018-12-11T14:19:38.076Z,5.625
2018-12-11T14:23:05.939Z,5.625
2018-12-11T14:26:33.807Z,5.625
2018-12-11T14:30:01.683Z,0
2018-12-11T14:33:29.569Z,0
2018-12-11T14:36:57.443Z,0
2018-12-11T14:40:25.301Z,0
2018-12-11T14:43:53.180Z,0
2018-12-11T14:47:21.040Z,0
2018-12-11T14:50:48.908Z,0
2018-12-11T14:54:16.785Z,0
2018-12-11T14:57:51.257Z,0
2018-12-11T15:01:19.131Z,0
2018-12-11T15:04:47.006Z,0
2018-12-11T15:08:14.883Z,0
2018-12-11T15:11:42.746Z,0
2018-12-11T15:15:10.627Z,0
2018-12-11T15:18:38.499Z,0
2018-12-11T15:22:06.354Z,0
2018-12-11T15:25:35.245Z,0
2018-12-11T15:29:03.117Z,0
2018-12-11T15:32:30.975Z,0
2018-12-11T15:35:59.845Z,0
2018-12-11T15:39:27.721Z,0
2018-12-11T15:42:56.576Z,0
2018-12-11T15:46:25.449Z,0
2018-12-11T15:49:53.320Z,0
2018-12-11T15:53:21.173Z,0
2018-12-11T15:56:49.048Z,0
2018-12-11T16:00:16.920Z,0
2018-12-11T16:03:44.793Z,0
2018-12-11T16:07:12.670Z,0
2018-12-11T16:10:40.546Z,0
2018-12-11T16:14:08.406Z,0
2018-12-11T16:17:36.279Z,0
2018-12-11T16:21:04.164Z,0
2018-12-11T16:24:32.028Z,0
2018-12-11T16:27:59.901Z,0
2018-12-11T16:31:27.774Z,0
2018-12-11T16:34:55.637Z,0
2018-12-11T16:38:23.512Z,0
2018-12-11T16:41:51.390Z,0
2018-12-11T16:45:19.263Z,0
2018-12-11T16:48:47.125Z,0
2018-12-11T16:52:15.004Z,0
2018-12-11T16:55:42.887Z,0
2018-12-11T16:59:10.748Z,0
2018-12-11T17:02:38.622Z,0
2018-12-11T17:06:06.493Z,0
2018-12-11T17:09:34.358Z,0
2018-12-11T17:13:02.239Z,0
2018-12-11T17:16:30.110Z,0
2018-12-11T17:19:57.969Z,0
2018-12-11T17:23:25.861Z,0
2018-12-11T17:26:53.749Z,0
2018-12-11T17:30:21.626Z,0
2018-12-11T17:33:49.492Z,0
2018-12-11T17:37:17.372Z,0
2018-12-11T17:40:45.251Z,0
2018-12-11T17:44:13.104Z,0
2018-12-11T17:47:40.980Z,0
2018-12-11T17:51:08.853Z,0
2018-12-11T17:54:36.747Z,0
2018-12-11T17:58:04.607Z,0
2018-12-11T18:01:32.484Z,0
2018-12-11T18:05:00.454Z,0
2018-12-11T18:08:28.316Z,0
2018-12-11T18:11:56.191Z,0
2018-12-11T18:15:24.066Z,0
2018-12-11T18:18:51.926Z,0
2018-12-11T18:22:19.800Z,0
2018-12-11T18:25:47.656Z,0
2018-12-11T18:29:15.551Z,0
2018-12-11T18:32:43.418Z,0
2018-12-11T18:36:11.295Z,0
2018-12-11T18:39:39.150Z,0
2018-12-11T18:43:07.104Z,0
2018-12-11T18:46:35.898Z,0
2018-12-11T18:50:03.754Z,0
2018-12-11T18:53:32.647Z,0
2018-12-11T18:57:00.517Z,0
2018-12-11T19:00:28.383Z,0
2018-12-11T19:03:56.255Z,0
2018-12-11T19:07:24.133Z,0
2018-12-11T19:10:51.991Z,0
2018-12-11T19:14:19.882Z,0
2018-12-11T19:17:47.785Z,0
2018-12-11T19:21:16.845Z,0
2018-12-11T19:24:44.626Z,0
2018-12-11T19:28:12.564Z,0
2018-12-11T19:31:41.563Z,0
2018-12-11T19:35:09.321Z,0
2018-12-11T19:38:37.361Z,0
2018-12-11T19:42:05.592Z,0
2018-12-11T19:45:33.822Z,0
2018-12-11T19:49:03.092Z,0
2018-12-11T19:52:31.063Z,0
2018-12-11T19:56:02.180Z,0
2018-12-11T19:59:31.400Z,0
2018-12-11T20:03:00.491Z,0
2018-12-11T20:06:28.598Z,0
2018-12-11T20:09:57.058Z,0
2018-12-11T20:13:25.517Z,0
2018-12-11T20:16:53.731Z,0
2018-12-11T20:20:21.905Z,0
2018-12-11T20:23:52.322Z,0
2018-12-11T20:27:21.042Z,0
2018-12-11T20:30:48.997Z,0
2018-12-11T20:36:23.773Z,0
2018-12-11T20:39:52.821Z,0
2018-12-11T20:43:20.715Z,0
2018-12-11T20:46:48.566Z,0
2018-12-11T20:50:17.529Z,0
2018-12-11T20:53:46.423Z,0
2018-12-11T20:57:14.937Z,0
2018-12-11T21:00:43.773Z,0
2018-12-11T21:04:11.671Z,0
2018-12-11T21:07:41.181Z,0
2018-12-11T21:11:09.386Z,0
2018-12-11T21:14:37.274Z,0
2018-12-11T21:18:05.217Z,0
2018-12-11T21:21:34.113Z,0
2018-12-11T21:25:02.010Z,0
2018-12-11T21:28:30.889Z,0
2018-12-11T21:31:58.862Z,0
2018-12-11T21:35:26.778Z,0
2018-12-11T21:38:54.686Z,0
2018-12-11T21:42:22.554Z,0
2018-12-11T21:45:50.493Z,0
2018-12-11T21:49:19.180Z,0
2018-12-11T21:52:47.049Z,0
2018-12-11T21:56:15.865Z,0
2018-12-11T21:59:43.875Z,0
2018-12-11T22:03:11.760Z,0
2018-12-11T22:06:39.680Z,0
2018-12-11T22:10:07.593Z,0
2018-12-11T22:13:37.040Z,0
2018-12-11T22:17:06.119Z,0
2018-12-11T22:20:34.006Z,0
2018-12-11T22:24:01.871Z,0
2018-12-11T22:27:30.773Z,0
2018-12-11T22:30:58.667Z,0
2018-12-11T22:34:26.597Z,0
2018-12-11T22:37:55.474Z,0
2018-12-11T22:41:24.356Z,0
2018-12-11T22:44:52.258Z,0
2018-12-11T22:48:20.144Z,0
2018-12-11T22:51:48.018Z,0
2018-12-11T22:55:16.039Z,0
2018-12-11T22:58:43.918Z,0
2018-12-11T23:02:11.811Z,0
2018-12-11T23:05:39.686Z,0
2018-12-11T23:09:07.580Z,0
2018-12-11T23:12:35.465Z,0
2018-12-11T23:16:03.342Z,0
2018-12-11T23:19:31.244Z,0
2018-12-11T23:22:59.118Z,0
2018-12-11T23:26:27.016Z,0
2018-12-11T23:29:54.883Z,0
2018-12-11T23:33:22.786Z,0
2018-12-11T23:36:50.682Z,0
2018-12-11T23:40:18.560Z,0
2018-12-11T23:43:46.459Z,0
2018-12-11T23:47:14.363Z,0
2018-12-11T23:50:42.273Z,0
2018-12-11T23:54:10.119Z,0
2018-12-11T23:57:38.015Z,0
